createdAt,value
2023-05-05T00:01:09.867Z,99947.59
2023-05-05T00:03:38.593Z,99957.81
2023-05-05T00:06:11.040Z,99949.94
2023-05-05T00:08:38.087Z,99951.97
2023-05-05T00:11:05.104Z,99948.75
2023-05-05T00:13:32.064Z,99941.59
2023-05-05T00:16:00.248Z,99945.44
2023-05-05T00:18:30.399Z,99944.44
2023-05-05T00:21:00.221Z,99938.91
2023-05-05T00:23:31.366Z,99932.19
2023-05-05T00:25:58.383Z,99942.09
2023-05-05T00:28:28.456Z,99939.44
2023-05-05T00:30:58.481Z,99938.56
2023-05-05T00:33:28.406Z,99942.59
2023-05-05T00:36:01.352Z,99946.13
2023-05-05T00:38:32.162Z,99945.81
2023-05-05T00:41:04.871Z,99951.66
2023-05-05T00:43:32.581Z,99950.31
2023-05-05T00:46:04.544Z,99950.00
2023-05-05T00:48:32.636Z,99943.13
2023-05-05T00:51:08.373Z,99947.81
2023-05-05T00:53:45.146Z,99941.63
2023-05-05T00:56:17.217Z,99940.63
2023-05-05T00:58:52.078Z,99934.91
2023-05-05T01:01:20.283Z,99943.28
2023-05-05T01:03:50.190Z,99938.44
2023-05-05T01:06:35.578Z,99946.00
2023-05-05T01:09:34.004Z,99948.16
2023-05-05T01:12:15.283Z,99943.13
2023-05-05T01:14:53.344Z,99940.28
2023-05-05T01:17:23.818Z,99933.25
2023-05-05T01:20:05.732Z,99937.78
2023-05-05T01:22:42.868Z,99930.91
2023-05-05T01:25:38.242Z,99931.59
2023-05-05T01:28:04.953Z,99927.41
2023-05-05T01:31:10.428Z,99930.03
2023-05-05T01:33:46.231Z,99924.88
2023-05-05T01:36:22.787Z,99923.38
2023-05-05T01:38:55.329Z,99926.59
2023-05-05T01:41:28.623Z,99926.38
2023-05-05T01:43:57.322Z,99921.03
2023-05-05T01:46:27.399Z,99916.66
2023-05-05T01:48:55.211Z,99912.53
2023-05-05T01:51:24.332Z,99907.16
2023-05-05T01:53:53.047Z,99912.16
2023-05-05T01:56:20.646Z,99913.69
2023-05-05T01:58:50.959Z,99913.69
2023-05-05T02:01:19.185Z,99921.22
2023-05-05T02:03:47.852Z,99926.38
2023-05-05T02:06:15.138Z,99924.19
2023-05-05T02:08:42.215Z,99925.84
2023-05-05T02:11:10.096Z,99936.56
2023-05-05T02:13:39.016Z,99933.53
2023-05-05T02:16:06.374Z,99933.38
2023-05-05T02:18:35.876Z,99930.38
2023-05-05T02:21:03.554Z,99937.06
2023-05-05T02:23:30.705Z,99932.22
2023-05-05T02:26:01.034Z,99938.53
2023-05-05T02:28:35.429Z,99939.56
2023-05-05T02:31:02.893Z,99946.44
2023-05-05T02:33:33.444Z,99937.38
2023-05-05T02:36:11.218Z,99951.25
2023-05-05T02:38:49.592Z,99954.09
2023-05-05T02:41:18.727Z,99957.94
2023-05-05T02:43:46.470Z,99956.78
2023-05-05T02:46:13.461Z,99960.78
2023-05-05T02:48:43.713Z,99960.44
2023-05-05T02:51:10.712Z,99969.63
2023-05-05T02:53:38.414Z,99960.28
2023-05-05T02:56:20.986Z,99958.75
2023-05-05T02:58:54.726Z,99962.94
2023-05-05T03:01:55.555Z,99959.59
2023-05-05T03:04:36.693Z,99970.44
2023-05-05T03:07:29.791Z,99965.75
2023-05-05T03:10:10.318Z,99967.94
2023-05-05T03:12:58.991Z,99968.56
2023-05-05T03:15:46.322Z,99964.09
2023-05-05T03:18:21.956Z,99956.44
2023-05-05T03:21:00.236Z,99954.41
2023-05-05T03:23:38.961Z,99955.25
2023-05-05T03:26:21.249Z,99960.59
2023-05-05T03:28:53.993Z,99956.94
2023-05-05T03:31:28.411Z,99966.59
2023-05-05T03:33:58.554Z,99974.34
2023-05-05T03:36:30.134Z,99964.13
2023-05-05T03:38:58.776Z,99967.13
2023-05-05T03:41:28.364Z,99964.94
2023-05-05T03:43:55.257Z,99956.09
2023-05-05T03:46:22.406Z,99962.28
2023-05-05T03:48:49.548Z,99956.78
2023-05-05T03:51:16.435Z,99962.28
2023-05-05T03:53:47.020Z,99947.53
2023-05-05T03:56:14.180Z,99961.09
2023-05-05T03:58:41.291Z,99961.56
2023-05-05T04:01:08.521Z,99963.25
2023-05-05T04:03:35.807Z,99956.06
2023-05-05T04:06:03.064Z,99963.44
2023-05-05T04:08:33.316Z,99969.28
2023-05-05T04:11:02.747Z,99955.56
2023-05-05T04:13:31.130Z,99968.63
2023-05-05T04:15:59.781Z,99973.81
2023-05-05T04:18:29.472Z,99971.66
2023-05-05T04:20:56.440Z,99971.97
2023-05-05T04:23:23.398Z,99974.47
2023-05-05T04:25:50.835Z,99980.81
2023-05-05T04:28:20.976Z,99983.13
2023-05-05T04:30:48.844Z,99982.66
2023-05-05T04:33:15.793Z,99982.03
2023-05-05T04:35:42.628Z,99982.19
2023-05-05T04:38:09.750Z,99993.78
2023-05-05T04:40:43.288Z,99983.41
2023-05-05T04:43:11.144Z,99988.28
2023-05-05T04:45:38.291Z,99993.59
2023-05-05T04:48:05.932Z,99994.28
2023-05-05T04:50:33.984Z,99986.91
2023-05-05T04:53:00.914Z,99991.25
2023-05-05T04:55:28.535Z,100000.63
2023-05-05T04:57:56.644Z,99991.09
2023-05-05T05:00:25.865Z,99987.94
2023-05-05T05:02:54.999Z,99992.94
2023-05-05T05:05:22.017Z,99992.59
2023-05-05T05:07:49.094Z,99992.09
2023-05-05T05:10:15.937Z,99991.44
2023-05-05T05:12:42.791Z,99995.63
2023-05-05T05:15:11.056Z,100002.47
2023-05-05T05:17:38.426Z,100004.00
2023-05-05T05:20:09.161Z,100003.31
2023-05-05T05:22:38.719Z,100005.22
2023-05-05T05:25:09.024Z,100004.03
2023-05-05T05:27:36.942Z,100006.72
2023-05-05T05:30:04.279Z,100013.94
2023-05-05T05:32:32.832Z,100017.44
2023-05-05T05:34:59.747Z,100013.44
2023-05-05T05:37:31.056Z,100012.94
2023-05-05T05:39:59.187Z,100015.63
2023-05-05T05:42:28.332Z,100010.94
2023-05-05T05:44:55.213Z,100014.78
2023-05-05T05:47:22.009Z,100010.28
2023-05-05T05:49:52.026Z,100007.06
2023-05-05T05:52:19.872Z,100013.28
2023-05-05T05:54:46.897Z,100011.09
2023-05-05T05:57:13.753Z,100005.56
2023-05-05T05:59:40.610Z,100010.59
2023-05-05T06:02:08.252Z,100022.16
2023-05-05T06:04:35.834Z,100015.28
2023-05-05T06:07:02.813Z,100025.84
2023-05-05T06:09:29.831Z,100025.16
2023-05-05T06:11:56.596Z,100026.84
2023-05-05T06:14:23.342Z,100028.69
2023-05-05T06:16:52.798Z,100023.34
2023-05-05T06:19:26.562Z,100029.34
2023-05-05T06:21:54.265Z,100027.00
2023-05-05T06:24:21.460Z,100018.78
2023-05-05T06:26:48.384Z,100018.63
2023-05-05T06:29:15.333Z,100016.22
2023-05-05T06:31:42.265Z,100025.28
2023-05-05T06:34:09.119Z,100034.31
2023-05-05T06:36:36.059Z,100034.31
2023-05-05T06:39:02.747Z,100024.63
2023-05-05T06:41:29.482Z,100027.31
2023-05-05T06:43:56.387Z,100032.69
2023-05-05T06:46:23.182Z,100033.03
2023-05-05T06:48:50.105Z,100032.00
2023-05-05T06:51:16.869Z,100030.81
2023-05-05T06:53:43.660Z,100028.81
2023-05-05T06:56:11.410Z,100031.81
2023-05-05T06:58:38.170Z,100028.78
2023-05-05T07:01:05.229Z,100035.47
2023-05-05T07:03:32.166Z,100038.25
2023-05-05T07:05:58.903Z,100031.41
2023-05-05T07:08:25.737Z,100030.53
2023-05-05T07:10:52.438Z,100030.34
2023-05-05T07:13:19.379Z,100024.59
2023-05-05T07:15:46.676Z,100034.47
2023-05-05T07:18:14.322Z,100034.78
2023-05-05T07:20:41.282Z,100039.63
2023-05-05T07:23:08.162Z,100036.72
2023-05-05T07:25:35.115Z,100035.38
2023-05-05T07:28:01.910Z,100035.84
2023-05-05T07:30:28.778Z,100036.16
2023-05-05T07:32:56.720Z,100033.09
2023-05-05T07:35:23.692Z,100038.16
2023-05-05T07:37:51.256Z,100035.09
2023-05-05T07:40:18.168Z,100030.53
2023-05-05T07:42:45.422Z,100028.69
2023-05-05T07:45:12.304Z,100040.75
2023-05-05T07:47:40.520Z,100031.66
2023-05-05T07:50:08.567Z,100034.03
2023-05-05T07:52:46.867Z,100039.50
2023-05-05T07:55:16.925Z,100024.03
2023-05-05T07:57:47.756Z,100025.34
2023-05-05T08:00:19.516Z,100029.34
2023-05-05T08:02:47.950Z,100027.16
2023-05-05T08:05:18.677Z,100020.50
2023-05-05T08:07:48.928Z,100021.63
2023-05-05T08:10:19.324Z,100013.00
2023-05-05T08:12:46.494Z,100006.97
2023-05-05T08:15:13.397Z,100013.00
2023-05-05T08:17:47.802Z,100008.09
2023-05-05T08:20:15.729Z,100004.59
2023-05-05T08:22:43.236Z,100011.31
2023-05-05T08:25:13.247Z,100006.00
2023-05-05T08:27:41.439Z,100015.19
2023-05-05T08:30:09.180Z,100006.13
2023-05-05T08:32:36.290Z,100008.59
2023-05-05T08:35:07.061Z,100007.44
2023-05-05T08:37:34.275Z,100007.25
2023-05-05T08:40:01.068Z,100002.91
2023-05-05T08:42:37.194Z,99997.69
2023-05-05T08:45:10.782Z,100005.03
2023-05-05T08:47:43.207Z,99992.69
2023-05-05T08:50:19.543Z,100001.06
2023-05-05T08:53:02.083Z,99998.16
2023-05-05T08:55:34.436Z,99998.91
2023-05-05T08:58:04.159Z,100008.53
2023-05-05T09:00:35.333Z,99997.38
2023-05-05T09:03:09.229Z,100005.38
2023-05-05T09:05:55.645Z,100011.03
2023-05-05T09:08:24.801Z,100001.66
2023-05-05T09:10:54.415Z,100011.50
2023-05-05T09:13:28.786Z,100010.66
2023-05-05T09:16:13.645Z,100009.44
2023-05-05T09:18:49.380Z,99994.38
2023-05-05T09:21:27.170Z,100019.63
2023-05-05T09:24:11.749Z,100012.28
2023-05-05T09:26:44.850Z,100011.06
2023-05-05T09:29:40.844Z,100011.66
2023-05-05T09:32:14.609Z,100003.47
2023-05-05T09:34:46.419Z,100008.47
2023-05-05T09:37:33.378Z,99995.97
2023-05-05T09:40:01.763Z,100000.41
2023-05-05T09:42:51.959Z,99992.69
2023-05-05T09:45:28.116Z,100001.41
2023-05-05T09:48:08.526Z,99999.56
2023-05-05T09:51:01.301Z,99983.97
2023-05-05T09:53:42.857Z,99997.69
2023-05-05T09:56:12.756Z,99990.06
2023-05-05T09:58:48.709Z,99993.69
2023-05-05T10:01:24.484Z,99998.03
2023-05-05T10:03:53.902Z,99986.91
2023-05-05T10:06:50.696Z,99984.78
2023-05-05T10:09:32.226Z,99988.81
2023-05-05T10:12:15.986Z,99996.72
2023-05-05T10:14:47.429Z,99989.47
2023-05-05T10:17:26.874Z,99993.56
2023-05-05T10:20:05.907Z,99995.03
2023-05-05T10:22:44.462Z,99993.56
2023-05-05T10:25:26.691Z,99995.03
2023-05-05T10:28:04.530Z,99981.13
2023-05-05T10:30:44.784Z,99992.59
2023-05-05T10:36:04.390Z,99985.81
2023-05-05T10:38:31.876Z,99990.63
2023-05-05T10:41:05.120Z,99993.38
2023-05-05T10:43:43.985Z,99983.81
2023-05-05T10:46:14.649Z,99982.16
2023-05-05T10:48:54.040Z,99980.88
2023-05-05T10:51:40.984Z,99984.28
2023-05-05T10:54:45.048Z,99976.69
2023-05-05T10:57:22.448Z,99973.03
2023-05-05T11:00:15.040Z,99973.03
2023-05-05T11:02:44.670Z,99966.63
2023-05-05T11:05:24.373Z,99971.63
2023-05-05T11:08:32.901Z,99965.16
2023-05-05T11:11:04.944Z,99964.63
2023-05-05T11:13:35.165Z,99965.28
2023-05-05T11:16:08.679Z,99965.69
2023-05-05T11:18:45.239Z,99953.44
2023-05-05T11:21:18.482Z,99950.38
2023-05-05T11:24:06.104Z,99952.28
2023-05-05T11:27:08.109Z,99946.66
2023-05-05T11:30:11.154Z,99936.50
2023-05-05T11:32:44.377Z,99942.22
2023-05-05T11:35:15.780Z,99939.97
2023-05-05T11:38:01.808Z,99933.56
2023-05-05T11:40:35.056Z,99927.72
2023-05-05T11:43:20.832Z,99934.38
2023-05-05T11:46:16.101Z,99927.47
2023-05-05T11:49:16.590Z,99931.03
2023-05-05T11:51:59.329Z,99937.88
2023-05-05T11:54:36.823Z,99932.34
2023-05-05T11:57:08.263Z,99921.31
2023-05-05T12:00:13.063Z,99917.56
2023-05-05T12:02:43.008Z,99914.69
2023-05-05T12:05:21.702Z,99909.94
2023-05-05T12:08:03.781Z,99910.78
2023-05-05T12:10:38.595Z,99913.56
2023-05-05T12:13:19.040Z,99905.19
2023-05-05T12:15:50.662Z,99910.28
2023-05-05T12:18:21.798Z,99907.34
2023-05-05T12:21:01.807Z,99907.41
2023-05-05T12:23:41.359Z,99899.31
2023-05-05T12:26:10.290Z,99893.94
2023-05-05T12:28:53.950Z,99893.72
2023-05-05T12:31:47.872Z,99891.25
2023-05-05T12:34:18.910Z,99883.38
2023-05-05T12:36:55.741Z,99878.19
2023-05-05T12:39:23.880Z,99876.31
2023-05-05T12:42:06.197Z,99882.53
2023-05-05T12:45:03.571Z,99888.34
2023-05-05T12:47:42.391Z,99875.91
2023-05-05T12:50:15.459Z,99875.91
2023-05-05T12:53:03.171Z,99886.50
2023-05-05T12:55:48.234Z,99878.00
2023-05-05T12:58:31.808Z,99876.53
2023-05-05T13:01:18.260Z,99872.81
2023-05-05T13:04:17.509Z,99867.81
2023-05-05T13:06:51.720Z,99867.03
2023-05-05T13:09:50.441Z,99852.06
2023-05-05T13:12:26.100Z,99845.44
2023-05-05T13:14:54.870Z,99831.97
2023-05-05T13:17:26.914Z,99840.28
2023-05-05T13:19:54.022Z,99834.88
2023-05-05T13:22:30.154Z,99824.91
2023-05-05T13:25:10.205Z,99828.88
2023-05-05T13:27:50.721Z,99823.06
2023-05-05T13:30:24.419Z,99818.28
2023-05-05T13:32:59.033Z,99815.78
2023-05-05T13:35:37.095Z,99808.72
2023-05-05T13:38:22.167Z,99812.69
2023-05-05T13:41:00.930Z,99813.09
2023-05-05T13:43:40.138Z,99794.38
2023-05-05T13:46:20.170Z,99794.81
2023-05-05T13:49:01.838Z,99797.75
2023-05-05T13:54:40.929Z,99787.56
2023-05-05T13:57:58.427Z,99792.75
2023-05-05T14:00:30.152Z,99789.84
2023-05-05T14:03:09.472Z,99781.31
2023-05-05T14:05:37.815Z,99770.53
2023-05-05T14:08:20.165Z,99773.03
2023-05-05T14:10:53.105Z,99772.00
2023-05-05T14:13:41.951Z,99755.38
2023-05-05T14:16:09.347Z,99748.09
2023-05-05T14:19:30.167Z,99758.06
2023-05-05T14:22:17.786Z,99745.81
2023-05-05T14:25:02.642Z,99748.53
2023-05-05T14:27:40.765Z,99752.06
2023-05-05T14:30:18.071Z,99740.22
2023-05-05T14:33:00.770Z,99740.22
2023-05-05T14:35:47.260Z,99744.16
2023-05-05T14:38:44.077Z,99756.22
2023-05-05T14:41:17.620Z,99752.66
2023-05-05T14:43:47.429Z,99756.19
2023-05-05T14:46:22.634Z,99748.91
2023-05-05T14:48:56.575Z,99747.66
2023-05-05T14:51:29.156Z,99744.38
2023-05-05T14:54:28.419Z,99750.19
2023-05-05T14:57:11.349Z,99752.66
2023-05-05T14:59:45.497Z,99756.19
2023-05-05T15:02:18.025Z,99751.63
2023-05-05T15:04:50.931Z,99747.47
2023-05-05T15:07:39.175Z,99742.91
2023-05-05T15:10:19.148Z,99740.22
2023-05-05T15:12:53.681Z,99746.84
2023-05-05T15:15:26.305Z,99750.59
2023-05-05T15:18:06.993Z,99745.19
2023-05-05T15:21:11.617Z,99743.09
2023-05-05T15:24:04.632Z,99739.78
2023-05-05T15:26:43.508Z,99741.84
2023-05-05T15:29:23.061Z,99735.84
2023-05-05T15:31:52.823Z,99735.84
2023-05-05T15:34:32.168Z,99733.97
2023-05-05T15:37:12.166Z,99730.25
2023-05-05T15:39:53.535Z,99726.28
2023-05-05T15:42:27.052Z,99724.41
2023-05-05T15:44:57.478Z,99724.22
2023-05-05T15:47:30.449Z,99722.53
2023-05-05T15:50:08.529Z,99711.34
2023-05-05T15:53:40.750Z,99721.31
2023-05-05T15:56:21.741Z,99706.53
2023-05-05T15:59:14.152Z,99722.53
2023-05-05T16:02:24.797Z,99719.00
2023-05-05T16:05:00.266Z,99719.63
2023-05-05T16:07:50.414Z,99721.06
2023-05-05T16:10:31.234Z,99728.97
2023-05-05T16:13:09.896Z,99730.84
2023-05-05T16:15:42.857Z,99731.47
2023-05-05T16:18:34.338Z,99737.88
2023-05-05T16:21:20.074Z,99732.28
2023-05-05T16:24:14.623Z,99743.09
2023-05-05T16:26:50.037Z,99748.72
2023-05-05T16:29:27.039Z,99757.63
2023-05-05T16:31:59.949Z,99765.94
2023-05-05T16:35:15.379Z,99777.34
2023-05-05T16:38:42.551Z,99799.56
2023-05-05T16:41:31.236Z,99804.75
2023-05-05T16:44:20.202Z,99834.19
2023-05-05T16:46:58.852Z,99874.44
2023-05-05T16:49:37.186Z,99896.66
2023-05-05T16:52:10.629Z,99900.53
2023-05-05T16:54:46.083Z,99892.63
2023-05-05T16:57:33.010Z,99894.16
2023-05-05T17:00:28.676Z,99898.66
2023-05-05T17:03:01.681Z,99891.97
2023-05-05T17:06:18.720Z,99901.00
2023-05-05T17:08:57.687Z,99903.13
2023-05-05T17:11:38.956Z,99896.84
2023-05-05T17:14:44.754Z,99903.66
2023-05-05T17:17:35.215Z,99910.41
2023-05-05T17:21:17.006Z,99909.78
2023-05-05T17:32:15.931Z,99914.25
2023-05-05T17:35:16.414Z,99905.72
2023-05-05T17:37:43.181Z,99907.91
2023-05-05T17:40:10.112Z,99907.09
2023-05-05T17:42:38.227Z,99907.50
2023-05-05T17:45:05.437Z,99906.66
2023-05-05T17:47:32.489Z,99898.94
2023-05-05T17:49:59.513Z,99893.72
2023-05-05T17:52:26.301Z,99902.22
2023-05-05T17:54:52.998Z,99902.84
2023-05-05T17:57:22.961Z,99901.81
2023-05-05T17:59:50.360Z,99904.69
2023-05-05T18:02:17.298Z,99905.09
2023-05-05T18:04:44.028Z,99891.56
2023-05-05T18:07:12.246Z,99890.78
2023-05-05T18:09:39.116Z,99888.47
2023-05-05T18:12:07.587Z,99901.13
2023-05-05T18:14:34.439Z,99909.56
2023-05-05T18:17:01.327Z,99902.25
2023-05-05T18:19:28.132Z,99901.44
2023-05-05T18:21:54.933Z,99902.44
2023-05-05T18:24:21.942Z,99902.00
2023-05-05T18:26:50.909Z,99914.44
2023-05-05T18:29:19.304Z,99914.63
2023-05-05T18:31:48.554Z,99907.38
2023-05-05T18:34:16.655Z,99909.25
2023-05-05T18:36:43.441Z,99906.34
2023-05-05T18:39:10.187Z,99909.91
2023-05-05T18:41:37.107Z,99921.69
2023-05-05T18:44:03.932Z,99913.16
2023-05-05T18:46:30.777Z,99912.34
2023-05-05T18:48:57.632Z,99914.16
2023-05-05T18:51:24.534Z,99922.63
2023-05-05T18:53:51.302Z,99920.16
2023-05-05T18:56:18.119Z,99920.91
2023-05-05T18:58:44.879Z,99925.44
2023-05-05T19:01:11.940Z,99916.06
2023-05-05T19:03:38.886Z,99923.31
2023-05-05T19:06:06.278Z,99931.22
2023-05-05T19:08:33.224Z,99937.16
2023-05-05T19:11:00.038Z,99934.00
2023-05-05T19:13:26.897Z,99924.66
2023-05-05T19:15:54.958Z,99931.69
2023-05-05T19:18:21.838Z,99934.78
2023-05-05T19:20:48.623Z,99946.56
2023-05-05T19:23:17.403Z,99947.56
2023-05-05T19:25:44.536Z,99950.66
2023-05-05T19:28:12.005Z,99950.66
2023-05-05T19:30:38.915Z,99956.41
2023-05-05T19:33:06.260Z,99950.66
2023-05-05T19:35:35.802Z,99961.41
2023-05-05T19:38:02.577Z,99952.03
2023-05-05T19:40:29.292Z,99955.75
2023-05-05T19:42:56.102Z,99961.41
2023-05-05T19:45:23.002Z,99957.41
2023-05-05T19:47:49.737Z,99967.81
2023-05-05T19:50:16.527Z,99973.38
2023-05-05T19:52:43.201Z,99969.66
2023-05-05T19:55:13.286Z,99973.38
2023-05-05T19:57:40.512Z,99974.41
2023-05-05T20:00:10.464Z,99976.91
2023-05-05T20:02:37.632Z,99972.72
2023-05-05T20:05:04.728Z,99981.84
2023-05-05T20:07:31.519Z,99980.63
2023-05-05T20:09:58.724Z,99980.72
2023-05-05T20:12:25.731Z,99977.56
2023-05-05T20:14:52.688Z,99981.66
2023-05-05T20:17:21.312Z,99974.22
2023-05-05T20:19:48.199Z,99975.81
2023-05-05T20:22:15.009Z,99980.63
2023-05-05T20:24:41.915Z,99981.66
2023-05-05T20:27:08.641Z,99980.25
2023-05-05T20:29:35.357Z,99987.50
2023-05-05T20:32:02.103Z,99982.78
2023-05-05T20:34:29.018Z,99972.94
2023-05-05T20:36:56.624Z,99977.84
2023-05-05T20:39:23.494Z,99985.91
2023-05-05T20:41:50.173Z,99982.28
2023-05-05T20:44:17.233Z,99981.00
2023-05-05T20:46:44.326Z,99979.00
2023-05-05T20:49:11.062Z,99993.16
2023-05-05T20:51:37.859Z,99988.81
2023-05-05T20:54:05.016Z,99992.66
2023-05-05T20:56:31.851Z,99986.81
2023-05-05T20:58:58.616Z,99992.66
2023-05-05T21:01:25.442Z,99988.94
2023-05-05T21:03:52.692Z,99999.03
2023-05-05T21:06:19.609Z,99994.53
2023-05-05T21:08:47.144Z,99990.16
2023-05-05T21:11:14.026Z,99995.91
2023-05-05T21:13:40.863Z,99986.63
2023-05-05T21:16:07.872Z,99991.06
2023-05-05T21:18:34.661Z,99990.06
2023-05-05T21:21:01.593Z,99987.72
2023-05-05T21:23:28.431Z,99991.28
2023-05-05T21:25:55.557Z,99984.69
2023-05-05T21:28:22.285Z,99985.03
2023-05-05T21:31:10.316Z,99982.06
2023-05-05T21:33:38.037Z,99984.75
2023-05-05T21:36:06.190Z,99983.75
2023-05-05T21:38:33.006Z,99986.91
2023-05-05T21:40:59.759Z,99986.91
2023-05-05T21:43:28.543Z,99984.94
2023-05-05T21:46:00.131Z,99983.19
2023-05-05T21:48:27.295Z,99981.97
2023-05-05T21:50:54.716Z,99984.00
2023-05-05T21:53:21.670Z,99974.34
2023-05-05T21:55:48.600Z,99973.88
2023-05-05T21:58:16.401Z,99982.97
2023-05-05T22:00:43.201Z,99979.97
2023-05-05T22:03:10.210Z,99978.16
2023-05-05T22:05:37.009Z,99967.94
2023-05-05T22:08:03.981Z,99973.22
2023-05-05T22:10:30.984Z,99978.97
2023-05-05T22:12:58.247Z,99980.19
2023-05-05T22:15:27.709Z,99979.06
2023-05-05T22:17:56.926Z,99981.78
2023-05-05T22:20:23.820Z,99987.66
2023-05-05T22:22:51.046Z,99991.91
2023-05-05T22:25:18.012Z,99987.81
2023-05-05T22:27:45.492Z,99993.19
2023-05-05T22:30:12.914Z,100002.47
2023-05-05T22:32:40.931Z,99997.91
2023-05-05T22:35:09.370Z,99995.59
2023-05-05T22:37:36.544Z,99988.03
2023-05-05T22:40:03.702Z,99991.06
2023-05-05T22:42:30.970Z,100003.94
2023-05-05T22:44:57.928Z,99998.13
2023-05-05T22:47:24.742Z,99997.47
2023-05-05T22:49:51.631Z,99998.78
2023-05-05T22:52:18.946Z,99993.41
2023-05-05T22:54:45.850Z,99993.56
2023-05-05T22:57:12.675Z,99997.09
2023-05-05T22:59:39.486Z,99998.78
2023-05-05T23:02:06.274Z,100002.97
2023-05-05T23:04:33.391Z,100004.25
2023-05-05T23:07:00.187Z,99987.13
2023-05-05T23:09:26.961Z,99995.66
2023-05-05T23:11:53.757Z,99993.41
2023-05-05T23:14:20.567Z,99990.56
2023-05-05T23:16:47.326Z,99999.13
2023-05-05T23:19:14.132Z,99989.19
2023-05-05T23:21:52.130Z,99990.19
2023-05-05T23:24:19.908Z,100002.97
2023-05-05T23:26:46.665Z,99996.59
2023-05-05T23:29:13.514Z,99999.13
2023-05-05T23:31:40.336Z,99996.97
2023-05-05T23:34:07.056Z,100001.31
2023-05-05T23:36:33.828Z,100013.25
2023-05-05T23:39:00.609Z,100002.13
2023-05-05T23:41:27.404Z,100004.38
2023-05-05T23:43:54.127Z,99994.53
2023-05-05T23:46:20.928Z,100004.63
2023-05-05T23:48:47.771Z,100006.47
2023-05-05T23:51:14.821Z,99995.19
2023-05-05T23:53:41.622Z,99993.88
2023-05-05T23:56:08.403Z,99995.19
2023-05-05T23:58:35.176Z,99992.28
